createdAt,value
2023-04-10T00:01:34.093Z,100.00
2023-04-10T00:04:02.729Z,100.00
2023-04-10T00:06:30.925Z,100.00
2023-04-10T00:08:59.251Z,100.00
2023-04-10T00:11:27.526Z,100.00
2023-04-10T00:13:55.512Z,100.00
2023-04-10T00:16:23.574Z,100.00
2023-04-10T00:18:51.312Z,100.00
2023-04-10T00:21:19.010Z,100.00
2023-04-10T00:23:46.810Z,100.00
2023-04-10T00:26:14.615Z,100.00
2023-04-10T00:28:43.555Z,100.00
2023-04-10T00:31:11.360Z,100.00
2023-04-10T00:33:39.142Z,100.00
2023-04-10T00:36:07.097Z,100.00
2023-04-10T00:38:35.120Z,100.00
2023-04-10T00:41:02.910Z,100.00
2023-04-10T00:43:31.350Z,100.00
2023-04-10T00:45:59.210Z,100.00
2023-04-10T00:48:26.950Z,100.00
2023-04-10T00:50:54.862Z,100.00
2023-04-10T00:53:22.839Z,100.00
2023-04-10T00:55:50.582Z,100.00
2023-04-10T00:58:18.455Z,100.00
2023-04-10T01:00:47.812Z,100.00
2023-04-10T01:03:16.247Z,100.00
2023-04-10T01:06:00.140Z,100.00
2023-04-10T01:08:31.203Z,100.00
2023-04-10T01:11:05.655Z,100.00
2023-04-10T01:13:33.491Z,100.00
2023-04-10T01:16:07.433Z,100.00
2023-04-10T01:18:41.172Z,100.00
2023-04-10T01:21:11.298Z,100.00
2023-04-10T01:23:54.495Z,100.00
2023-04-10T01:26:42.429Z,100.00
2023-04-10T01:29:14.173Z,100.00
2023-04-10T01:31:45.776Z,100.00
2023-04-10T01:34:25.521Z,100.00
2023-04-10T01:37:00.046Z,100.00
2023-04-10T01:39:29.212Z,100.00
2023-04-10T01:41:58.467Z,100.00
2023-04-10T01:44:37.246Z,100.00
2023-04-10T01:47:07.008Z,100.00
2023-04-10T01:49:35.137Z,100.00
2023-04-10T01:52:06.491Z,100.00
2023-04-10T01:54:35.437Z,100.00
2023-04-10T01:57:04.365Z,100.00
2023-04-10T01:59:39.345Z,100.00
2023-04-10T02:02:07.218Z,100.00
2023-04-10T02:04:35.385Z,100.00
2023-04-10T02:07:05.036Z,100.00
2023-04-10T02:09:35.787Z,100.00
2023-04-10T02:12:09.352Z,100.00
2023-04-10T02:14:41.338Z,100.00
2023-04-10T02:17:10.032Z,100.00
2023-04-10T02:19:38.703Z,100.00
2023-04-10T02:22:06.572Z,100.00
2023-04-10T02:24:35.148Z,100.00
2023-04-10T02:27:03.193Z,100.00
2023-04-10T02:29:30.944Z,100.00
2023-04-10T02:31:58.771Z,100.00
2023-04-10T02:34:26.654Z,100.00
2023-04-10T02:36:57.346Z,100.00
2023-04-10T02:39:25.722Z,100.00
2023-04-10T02:41:53.484Z,100.00
2023-04-10T02:44:21.579Z,100.00
2023-04-10T02:46:49.328Z,100.00
2023-04-10T02:49:17.947Z,100.00
2023-04-10T02:51:51.634Z,100.00
2023-04-10T02:54:19.505Z,100.00
2023-04-10T02:56:47.281Z,100.00
2023-04-10T02:59:15.153Z,100.00
2023-04-10T03:01:43.510Z,100.00
2023-04-10T03:04:11.890Z,100.00
2023-04-10T03:06:40.478Z,100.00
2023-04-10T03:09:08.587Z,100.00
2023-04-10T03:11:36.542Z,100.00
2023-04-10T03:14:04.681Z,100.00
2023-04-10T03:16:32.847Z,100.00
2023-04-10T03:19:03.540Z,100.00
2023-04-10T03:21:51.518Z,100.00
2023-04-10T03:24:22.660Z,100.00
2023-04-10T03:26:50.609Z,100.00
2023-04-10T03:29:19.541Z,100.00
2023-04-10T03:31:47.472Z,100.00
2023-04-10T03:34:15.370Z,100.00
2023-04-10T03:36:46.077Z,100.00
2023-04-10T03:39:15.661Z,100.00
2023-04-10T03:41:49.165Z,100.00
2023-04-10T03:44:17.035Z,100.00
2023-04-10T03:46:45.801Z,100.00
2023-04-10T03:49:13.652Z,100.00
2023-04-10T03:51:41.830Z,100.00
2023-04-10T03:54:09.862Z,100.00
2023-04-10T03:56:37.704Z,100.00
2023-04-10T03:59:07.952Z,100.00
2023-04-10T04:01:40.396Z,100.00
2023-04-10T04:04:10.882Z,100.00
2023-04-10T04:07:14.870Z,100.00
2023-04-10T04:10:11.722Z,100.00
2023-04-10T04:13:03.999Z,100.00
2023-04-10T04:15:41.604Z,100.00
2023-04-10T04:18:34.191Z,100.00
2023-04-10T04:21:28.851Z,100.00
2023-04-10T04:24:08.325Z,100.00
2023-04-10T04:26:57.502Z,100.00
2023-04-10T04:30:04.744Z,100.00
2023-04-10T04:33:04.640Z,100.00
2023-04-10T04:36:02.090Z,100.00
2023-04-10T04:38:39.201Z,100.00
2023-04-10T04:41:29.505Z,100.00
2023-04-10T04:44:18.448Z,100.00
2023-04-10T04:46:46.135Z,100.00
2023-04-10T04:49:36.450Z,100.00
2023-04-10T04:52:39.808Z,100.00
2023-04-10T04:55:20.084Z,100.00
2023-04-10T04:58:13.844Z,100.00
2023-04-10T05:00:52.083Z,100.00
2023-04-10T05:03:32.912Z,100.00
2023-04-10T05:06:19.806Z,100.00
2023-04-10T05:09:13.473Z,100.00
2023-04-10T05:12:13.765Z,100.00
2023-04-10T05:14:51.999Z,100.00
2023-04-10T05:17:30.333Z,100.00
2023-04-10T05:20:38.388Z,100.00
2023-04-10T05:23:36.932Z,100.00
2023-04-10T05:26:23.594Z,100.00
2023-04-10T05:29:09.903Z,100.00
2023-04-10T05:32:06.574Z,100.00
2023-04-10T05:34:45.461Z,100.00
2023-04-10T05:37:22.591Z,100.00
2023-04-10T05:40:05.768Z,100.00
2023-04-10T05:42:51.437Z,100.00
2023-04-10T05:45:26.076Z,100.00
2023-04-10T05:48:08.992Z,100.00
2023-04-10T05:50:43.492Z,100.00
2023-04-10T05:53:34.804Z,100.00
2023-04-10T05:56:02.990Z,100.00
2023-04-10T05:58:56.635Z,100.00
2023-04-10T06:01:44.311Z,100.00
2023-04-10T06:04:12.480Z,100.00
2023-04-10T06:06:40.608Z,100.00
2023-04-10T06:09:08.351Z,100.00
2023-04-10T06:11:36.215Z,100.00
2023-04-10T06:14:04.158Z,100.00
2023-04-10T06:16:37.489Z,100.00
2023-04-10T06:19:05.263Z,100.00
2023-04-10T06:21:33.055Z,100.00
2023-04-10T06:24:00.999Z,100.00
2023-04-10T06:26:28.983Z,100.00
2023-04-10T06:28:56.897Z,100.00
2023-04-10T06:31:26.955Z,100.00
2023-04-10T06:33:54.791Z,100.00
2023-04-10T06:36:23.007Z,100.00
2023-04-10T06:38:57.487Z,100.00
2023-04-10T06:41:25.273Z,100.00
2023-04-10T06:43:55.451Z,100.00
2023-04-10T06:46:23.412Z,100.00
2023-04-10T06:48:51.401Z,100.00
2023-04-10T06:51:19.212Z,100.00
2023-04-10T06:53:47.153Z,100.00
2023-04-10T06:56:15.000Z,100.00
2023-04-10T06:58:42.749Z,100.00
2023-04-10T07:01:15.173Z,100.00
2023-04-10T07:03:46.259Z,100.00
2023-04-10T07:06:14.113Z,100.00
2023-04-10T07:09:01.601Z,100.00
2023-04-10T07:11:31.910Z,100.00
2023-04-10T07:13:59.757Z,100.00
2023-04-10T07:16:30.034Z,100.00
2023-04-10T07:18:58.175Z,100.00
2023-04-10T07:21:40.622Z,100.00
2023-04-10T07:24:08.485Z,100.00
2023-04-10T07:26:38.956Z,100.00
2023-04-10T07:29:06.710Z,100.00
2023-04-10T07:31:34.826Z,100.00
2023-04-10T07:34:03.117Z,100.00
2023-04-10T07:36:30.936Z,100.00
2023-04-10T07:38:58.928Z,100.00
2023-04-10T07:41:27.012Z,100.00
2023-04-10T07:43:55.054Z,100.00
2023-04-10T07:46:30.589Z,100.00
2023-04-10T07:48:58.336Z,100.00
2023-04-10T07:51:26.345Z,100.00
2023-04-10T07:53:54.384Z,100.00
2023-04-10T07:56:35.684Z,100.00
2023-04-10T07:59:08.504Z,100.00
2023-04-10T08:01:59.156Z,100.00
2023-04-10T08:04:40.155Z,100.00
2023-04-10T08:07:10.417Z,100.00
2023-04-10T08:09:43.527Z,100.00
2023-04-10T08:12:21.909Z,100.00
2023-04-10T08:14:49.997Z,100.00
2023-04-10T08:17:17.853Z,100.00
2023-04-10T08:19:45.629Z,100.00
2023-04-10T08:22:13.494Z,100.00
2023-04-10T08:24:43.772Z,100.00
2023-04-10T08:27:11.741Z,100.00
2023-04-10T08:29:39.622Z,100.00
2023-04-10T08:32:07.345Z,100.00
2023-04-10T08:34:35.364Z,100.00
2023-04-10T08:37:06.728Z,100.00
2023-04-10T08:39:38.055Z,100.00
2023-04-10T08:42:06.352Z,100.00
2023-04-10T08:44:34.257Z,100.00
2023-04-10T08:47:02.414Z,100.00
2023-04-10T08:49:55.268Z,100.00
2023-04-10T08:52:24.972Z,100.00
2023-04-10T08:54:56.537Z,100.00
2023-04-10T08:57:28.642Z,100.00
2023-04-10T08:59:58.571Z,100.00
2023-04-10T09:02:40.836Z,100.00
2023-04-10T09:05:13.304Z,100.00
2023-04-10T09:07:43.757Z,100.00
2023-04-10T09:10:11.673Z,99.87
2023-04-10T09:12:46.529Z,99.98
2023-04-10T09:15:15.069Z,100.00
2023-04-10T09:17:56.678Z,99.60
2023-04-10T09:20:25.773Z,99.54
2023-04-10T09:22:53.638Z,99.37
2023-04-10T09:25:35.127Z,99.71
2023-04-10T09:28:07.266Z,100.00
2023-04-10T09:30:36.329Z,99.98
2023-04-10T09:33:24.707Z,99.97
2023-04-10T09:35:52.898Z,100.00
2023-04-10T09:38:21.966Z,99.99
2023-04-10T09:40:50.491Z,99.94
2023-04-10T09:43:28.987Z,100.00
2023-04-10T09:45:57.063Z,100.00
2023-04-10T09:48:25.524Z,99.32
2023-04-10T09:50:53.513Z,98.38
2023-04-10T09:53:21.407Z,98.03
2023-04-10T09:56:00.909Z,98.28
2023-04-10T09:58:28.882Z,97.78
2023-04-10T10:00:56.771Z,97.13
2023-04-10T10:03:25.028Z,96.70
2023-04-10T10:05:53.119Z,95.91
2023-04-10T10:08:21.729Z,95.18
2023-04-10T10:10:58.263Z,93.97
2023-04-10T10:13:55.551Z,93.47
2023-04-10T10:16:32.186Z,92.63
2023-04-10T10:19:13.045Z,90.63
2023-04-10T10:21:52.267Z,89.76
2023-04-10T10:24:40.767Z,88.26
2023-04-10T10:27:09.861Z,87.43
2023-04-10T10:29:54.042Z,85.87
2023-04-10T10:32:27.906Z,86.31
2023-04-10T10:35:00.900Z,87.18
2023-04-10T10:37:31.531Z,87.36
2023-04-10T10:40:03.932Z,86.36
2023-04-10T10:42:55.175Z,86.33
2023-04-10T10:45:41.339Z,85.84
2023-04-10T10:48:10.777Z,84.56
2023-04-10T10:51:11.177Z,84.28
2023-04-10T10:53:48.538Z,82.03
2023-04-10T10:56:19.457Z,81.66
2023-04-10T10:58:53.549Z,79.21
2023-04-10T11:01:27.019Z,79.54
2023-04-10T11:03:55.286Z,79.51
2023-04-10T11:06:45.198Z,78.90
2023-04-10T11:09:49.851Z,79.20
2023-04-10T11:12:47.393Z,77.38
2023-04-10T11:15:22.905Z,74.78
2023-04-10T11:17:51.959Z,74.34
2023-04-10T11:20:36.609Z,74.68
2023-04-10T11:23:30.180Z,72.47
2023-04-10T11:26:40.491Z,68.37
2023-04-10T11:29:48.825Z,69.51
2023-04-10T11:32:50.420Z,68.98
2023-04-10T11:35:46.120Z,67.78
2023-04-10T11:38:46.887Z,68.41
2023-04-10T11:41:29.514Z,68.32
2023-04-10T11:44:03.757Z,69.74
2023-04-10T11:46:33.258Z,69.09
2023-04-10T11:49:23.957Z,68.19
2023-04-10T11:51:52.506Z,67.74
2023-04-10T11:54:40.485Z,67.52
2023-04-10T11:57:34.076Z,65.03
2023-04-10T12:00:22.768Z,60.67
2023-04-10T12:03:17.906Z,58.35
2023-04-10T12:06:01.021Z,57.65
2023-04-10T12:08:49.381Z,56.52
2023-04-10T12:11:31.870Z,57.07
2023-04-10T12:14:00.103Z,58.74
2023-04-10T12:16:45.015Z,58.27
2023-04-10T12:19:14.196Z,58.11
2023-04-10T12:21:51.717Z,58.06
2023-04-10T12:24:38.636Z,60.21
2023-04-10T12:27:26.949Z,61.71
2023-04-10T12:30:07.497Z,61.78
2023-04-10T12:32:41.297Z,62.60
2023-04-10T12:35:12.694Z,63.59
2023-04-10T12:38:01.900Z,61.33
2023-04-10T12:40:50.018Z,58.11
2023-04-10T12:43:50.529Z,55.07
2023-04-10T12:46:43.655Z,51.71
2023-04-10T12:49:52.024Z,50.32
2023-04-10T12:52:28.703Z,48.72
2023-04-10T12:55:35.721Z,48.33
2023-04-10T12:58:21.810Z,50.50
2023-04-10T13:01:04.319Z,51.92
2023-04-10T13:03:38.196Z,52.32
2023-04-10T13:06:18.064Z,50.82
2023-04-10T13:09:00.119Z,48.84
2023-04-10T13:11:49.086Z,45.79
2023-04-10T13:14:22.321Z,44.91
2023-04-10T13:16:50.457Z,43.61
2023-04-10T13:19:41.422Z,44.66
2023-04-10T13:22:24.696Z,46.52
2023-04-10T13:24:53.081Z,47.73
2023-04-10T13:27:44.681Z,48.44
2023-04-10T13:30:17.772Z,49.43
2023-04-10T13:32:46.062Z,50.88
2023-04-10T13:35:16.720Z,51.41
2023-04-10T13:37:54.869Z,48.92
2023-04-10T13:40:25.454Z,46.77
2023-04-10T13:42:53.814Z,44.25
2023-04-10T13:45:22.971Z,43.47
2023-04-10T13:47:50.897Z,40.67
2023-04-10T13:50:31.705Z,38.32
2023-04-10T13:53:21.182Z,36.47
2023-04-10T13:55:58.423Z,37.49
2023-04-10T13:58:34.223Z,39.54
2023-04-10T14:01:21.164Z,40.85
2023-04-10T14:03:55.105Z,41.79
2023-04-10T14:06:28.880Z,42.07
2023-04-10T14:08:59.284Z,40.57
2023-04-10T14:11:35.779Z,39.83
2023-04-10T14:14:14.211Z,38.20
2023-04-10T14:16:46.889Z,34.36
2023-04-10T14:19:22.436Z,33.74
2023-04-10T14:21:50.604Z,34.22
2023-04-10T14:24:27.496Z,35.57
2023-04-10T14:27:13.426Z,36.55
2023-04-10T14:29:50.701Z,36.37
2023-04-10T14:32:37.531Z,36.77
2023-04-10T14:35:12.950Z,37.44
2023-04-10T14:38:01.202Z,38.95
2023-04-10T14:40:49.382Z,40.21
2023-04-10T14:43:20.057Z,41.65
2023-04-10T14:46:01.138Z,43.07
2023-04-10T14:48:32.921Z,44.25
2023-04-10T14:51:21.391Z,45.11
2023-04-10T14:53:53.203Z,46.31
2023-04-10T14:56:31.441Z,47.04
2023-04-10T14:58:59.582Z,48.33
2023-04-10T15:01:32.356Z,49.66
2023-04-10T15:04:20.916Z,51.88
2023-04-10T15:06:52.001Z,52.20
2023-04-10T15:09:30.542Z,53.33
2023-04-10T15:12:18.953Z,53.25
2023-04-10T15:14:48.299Z,54.59
2023-04-10T15:17:24.313Z,55.19
2023-04-10T15:19:53.101Z,57.14
2023-04-10T15:22:26.644Z,59.03
2023-04-10T15:25:20.691Z,59.68
2023-04-10T15:27:58.380Z,61.30
2023-04-10T15:30:41.714Z,62.81
2023-04-10T15:33:13.064Z,63.39
2023-04-10T15:35:47.715Z,64.19
2023-04-10T15:38:20.554Z,64.87
2023-04-10T15:40:51.202Z,65.55
2023-04-10T15:43:21.503Z,66.01
2023-04-10T15:45:51.999Z,66.77
2023-04-10T15:48:28.860Z,67.06
2023-04-10T15:51:14.939Z,67.44
2023-04-10T15:54:07.319Z,68.04
2023-04-10T15:56:43.368Z,68.25
2023-04-10T15:59:11.297Z,68.61
2023-04-10T16:01:39.924Z,69.18
2023-04-10T16:04:08.121Z,69.19
2023-04-10T16:06:42.317Z,69.63
2023-04-10T16:09:27.166Z,69.90
2023-04-10T16:12:05.048Z,70.23
2023-04-10T16:14:33.512Z,70.43
2023-04-10T16:17:22.349Z,70.66
2023-04-10T16:19:58.761Z,71.01
2023-04-10T16:22:30.390Z,71.43
2023-04-10T16:25:00.058Z,71.79
2023-04-10T16:27:32.859Z,71.97
2023-04-10T16:30:03.428Z,72.58
2023-04-10T16:32:51.580Z,72.85
2023-04-10T16:35:27.281Z,73.20
2023-04-10T16:37:55.881Z,73.44
2023-04-10T16:40:23.935Z,73.68
2023-04-10T16:42:52.109Z,74.22
2023-04-10T16:45:22.735Z,74.78
2023-04-10T16:47:50.881Z,75.04
2023-04-10T16:50:24.423Z,75.57
2023-04-10T16:52:52.761Z,76.24
2023-04-10T16:55:21.111Z,76.29
2023-04-10T16:57:49.729Z,76.68
2023-04-10T17:00:18.153Z,77.16
2023-04-10T17:02:45.961Z,77.29
2023-04-10T17:05:14.930Z,77.37
2023-04-10T17:07:44.512Z,77.39
2023-04-10T17:10:13.283Z,77.52
2023-04-10T17:12:41.369Z,77.29
2023-04-10T17:15:09.833Z,77.45
2023-04-10T17:17:38.237Z,77.58
2023-04-10T17:20:06.667Z,77.83
2023-04-10T17:22:34.916Z,78.06
2023-04-10T17:25:03.238Z,78.21
2023-04-10T17:27:31.650Z,78.55
2023-04-10T17:30:00.209Z,78.73
2023-04-10T17:32:28.037Z,79.23
2023-04-10T17:34:56.583Z,79.06
2023-04-10T17:37:24.950Z,79.68
2023-04-10T17:39:52.787Z,79.86
2023-04-10T17:42:21.127Z,79.83
2023-04-10T17:44:48.977Z,80.21
2023-04-10T17:47:17.260Z,80.33
2023-04-10T17:49:45.924Z,80.44
2023-04-10T17:52:13.798Z,80.59
2023-04-10T17:54:41.648Z,80.95
2023-04-10T17:57:09.744Z,80.61
2023-04-10T17:59:37.980Z,80.96
2023-04-10T18:02:09.781Z,81.04
2023-04-10T18:04:39.864Z,81.36
2023-04-10T18:07:09.104Z,81.82
2023-04-10T18:09:38.432Z,81.64
2023-04-10T18:12:07.106Z,81.86
2023-04-10T18:14:35.044Z,81.93
2023-04-10T18:17:02.995Z,82.24
2023-04-10T18:19:33.596Z,82.71
2023-04-10T18:22:04.962Z,83.01
2023-04-10T18:24:33.437Z,83.08
2023-04-10T18:27:01.727Z,83.32
2023-04-10T18:29:30.999Z,83.25
2023-04-10T18:31:59.199Z,83.28
2023-04-10T18:34:27.469Z,83.66
2023-04-10T18:36:55.255Z,84.13
2023-04-10T18:39:23.230Z,84.62
2023-04-10T18:41:51.783Z,84.96
2023-04-10T18:44:20.021Z,84.19
2023-04-10T18:47:10.341Z,84.07
2023-04-10T18:49:38.766Z,84.44
2023-04-10T18:52:07.002Z,84.65
2023-04-10T18:54:38.250Z,84.63
2023-04-10T18:57:11.959Z,85.10
2023-04-10T18:59:40.386Z,85.28
2023-04-10T19:02:08.477Z,85.75
2023-04-10T19:04:36.607Z,86.20
2023-04-10T19:07:08.380Z,86.11
2023-04-10T19:09:39.318Z,86.43
2023-04-10T19:12:07.993Z,86.75
2023-04-10T19:14:36.287Z,86.96
2023-04-10T19:17:04.395Z,87.12
2023-04-10T19:19:35.415Z,87.24
2023-04-10T19:22:03.309Z,87.45
2023-04-10T19:24:34.027Z,87.62
2023-04-10T19:27:07.517Z,87.70
2023-04-10T19:29:40.563Z,87.68
2023-04-10T19:32:09.846Z,87.73
2023-04-10T19:34:37.656Z,87.87
2023-04-10T19:37:05.792Z,88.08
2023-04-10T19:39:41.342Z,88.58
2023-04-10T19:42:09.413Z,88.77
2023-04-10T19:44:38.232Z,88.89
2023-04-10T19:47:06.248Z,88.89
2023-04-10T19:49:37.032Z,88.89
2023-04-10T19:52:04.946Z,89.26
2023-04-10T19:54:32.770Z,89.55
2023-04-10T19:57:00.908Z,89.67
2023-04-10T19:59:29.082Z,89.89
2023-04-10T20:02:00.217Z,90.23
2023-04-10T20:04:28.749Z,90.33
2023-04-10T20:06:56.838Z,90.46
2023-04-10T20:09:26.927Z,90.67
2023-04-10T20:12:00.130Z,90.76
2023-04-10T20:14:28.096Z,90.67
2023-04-10T20:17:03.541Z,90.50
2023-04-10T20:19:31.383Z,89.73
2023-04-10T20:22:02.005Z,89.31
2023-04-10T20:24:30.657Z,89.60
2023-04-10T20:26:58.798Z,89.62
2023-04-10T20:29:26.746Z,90.10
2023-04-10T20:31:54.672Z,90.65
2023-04-10T20:34:23.073Z,90.83
2023-04-10T20:36:50.955Z,91.20
2023-04-10T20:39:18.894Z,91.10
2023-04-10T20:41:47.173Z,91.33
2023-04-10T20:44:15.019Z,91.49
2023-04-10T20:46:42.968Z,91.43
2023-04-10T20:49:11.192Z,91.38
2023-04-10T20:51:39.335Z,91.25
2023-04-10T20:54:07.092Z,91.20
2023-04-10T20:56:42.984Z,91.32
2023-04-10T20:59:11.524Z,91.62
2023-04-10T21:01:39.558Z,91.84
2023-04-10T21:04:07.475Z,91.75
2023-04-10T21:06:35.617Z,91.23
2023-04-10T21:09:03.857Z,91.00
2023-04-10T21:11:31.808Z,91.50
2023-04-10T21:14:00.178Z,92.39
2023-04-10T21:16:28.391Z,92.78
2023-04-10T21:18:56.360Z,93.51
2023-04-10T21:21:24.309Z,93.92
2023-04-10T21:23:52.505Z,94.32
2023-04-10T21:26:20.530Z,94.76
2023-04-10T21:28:48.454Z,94.02
2023-04-10T21:31:16.495Z,92.80
2023-04-10T21:33:44.283Z,92.23
2023-04-10T21:36:12.147Z,92.04
2023-04-10T21:38:39.924Z,92.12
2023-04-10T21:41:07.801Z,92.15
2023-04-10T21:43:35.872Z,92.93
2023-04-10T21:46:03.867Z,93.50
2023-04-10T21:48:31.635Z,93.78
2023-04-10T21:50:59.451Z,93.87
2023-04-10T21:53:27.319Z,93.75
2023-04-10T21:55:55.223Z,94.12
2023-04-10T21:58:23.215Z,94.01
2023-04-10T22:00:51.429Z,93.83
2023-04-10T22:03:19.531Z,94.09
2023-04-10T22:05:47.475Z,94.44
2023-04-10T22:08:15.216Z,94.47
2023-04-10T22:10:43.083Z,94.95
2023-04-10T22:13:16.930Z,94.79
2023-04-10T22:15:51.812Z,94.67
2023-04-10T22:18:19.638Z,94.54
2023-04-10T22:20:47.436Z,94.54
2023-04-10T22:23:15.422Z,94.58
2023-04-10T22:25:43.123Z,94.56
2023-04-10T22:28:10.940Z,94.70
2023-04-10T22:30:38.949Z,94.58
2023-04-10T22:33:06.998Z,94.35
2023-04-10T22:35:37.052Z,94.30
2023-04-10T22:38:04.870Z,94.38
2023-04-10T22:40:32.595Z,94.50
2023-04-10T22:43:00.576Z,94.33
2023-04-10T22:45:28.464Z,94.58
2023-04-10T22:47:56.291Z,94.08
2023-04-10T22:50:24.069Z,94.36
2023-04-10T22:52:55.391Z,94.70
2023-04-10T22:55:26.253Z,94.74
2023-04-10T22:58:01.729Z,94.43
2023-04-10T23:00:29.877Z,94.25
2023-04-10T23:02:57.869Z,94.64
2023-04-10T23:05:27.061Z,94.75
2023-04-10T23:07:55.504Z,95.01
2023-04-10T23:10:23.368Z,95.12
2023-04-10T23:12:53.588Z,95.02
2023-04-10T23:15:21.356Z,95.25
2023-04-10T23:17:49.062Z,95.39
2023-04-10T23:20:16.916Z,96.00
2023-04-10T23:22:44.828Z,96.09
2023-04-10T23:25:12.742Z,95.92
2023-04-10T23:27:46.651Z,96.24
2023-04-10T23:30:17.613Z,96.15
2023-04-10T23:32:47.936Z,95.90
2023-04-10T23:35:15.939Z,95.53
2023-04-10T23:37:43.947Z,94.98
2023-04-10T23:40:12.183Z,94.93
2023-04-10T23:42:40.083Z,95.01
2023-04-10T23:45:08.301Z,95.25
2023-04-10T23:47:36.167Z,95.31
2023-04-10T23:50:10.050Z,95.67
2023-04-10T23:52:52.258Z,95.33
2023-04-10T23:55:20.250Z,94.94
2023-04-10T23:57:48.241Z,95.12
